HMS Liberty — WDD7435 — position and weather

sailwx.info

Track history (hours):
 
Tides and Currents Weather Stations Pressure Air Temp Water Temp Dewpoint Dewpoint Depression Visibility Wind Speed Wind Dir Waves Ship Positions

HMS Liberty

Owner: Harley Marine Services, Inc., Seattle, WA. More information available from US FCC via Universal Licensing System and Coast Guard Vessel Documentation Center.

Last reported at 2017-Dec-16 06:01 UTC. Time now 2017-Dec-16 09:14 UTC.
Position N 40°32' W 074°15'.

Length 26 m.

Type: Towing. MMSI: 367100050.

Date/timePositionNaut miles runAvg speedWind from/ knotsBaromVisibWave heightAir tempDewpointWater temp
2017-Dec-16 06:01N 40°32' W 074°15'1 2.7
2017-Dec-16 05:35N 40°33' W 074°15'0 2.8
2017-Dec-16 05:28N 40°33' W 074°14'1 2.6
2017-Dec-16 05:00N 40°34' W 074°13'2 3.2
2017-Dec-16 04:30N 40°36' W 074°12'3 5.2
2017-Dec-16 04:00N 40°38' W 074°12'3 5.6
2017-Dec-16 03:30N 40°39' W 074°08'2 4.8
2017-Dec-16 03:00N 40°39' W 074°05'3 5.6
2017-Dec-16 02:30N 40°39' W 074°02'1 2.4
2017-Dec-16 02:00N 40°40' W 074°00'1 2.3
2017-Dec-16 01:30N 40°40' W 074°02'3 5.6
2017-Dec-16 01:01N 40°39' W 074°05'2 3.0
2017-Dec-16 00:30N 40°39' W 074°07'0 0.0
2017-Dec-16 00:00N 40°39' W 074°07'0 0.1
2017-Dec-15 23:30N 40°39' W 074°07'0 0.4
2017-Dec-15 22:59N 40°39' W 074°07'2 4.8
2017-Dec-15 22:30N 40°39' W 074°04'3 5.9
2017-Dec-15 22:00N 40°40' W 074°00'0 0.1
2017-Dec-15 21:30N 40°40' W 074°00'0 0.0
2017-Dec-15 21:00N 40°40' W 074°00'0 0.0
2017-Dec-15 20:30N 40°40' W 074°00'0 0.0
2017-Dec-15 20:00N 40°40' W 074°00'0 0.0
2017-Dec-15 19:30N 40°40' W 074°00'0 0.0
2017-Dec-15 19:00N 40°40' W 074°00'0 0.0
2017-Dec-15 18:30N 40°40' W 074°00'0 0.0
2017-Dec-15 18:00N 40°40' W 074°00'0 0.0
2017-Dec-15 17:30N 40°40' W 074°00'0 0.0
2017-Dec-15 17:00N 40°40' W 074°00'3 5.3
2017-Dec-15 16:30N 40°39' W 074°03'4 8.6
2017-Dec-15 16:01N 40°39' W 074°09'1 2.0
2017-Dec-15 15:30N 40°40' W 074°09'0 0.0
2017-Dec-15 14:59N 40°40' W 074°09'1 2.2
2017-Dec-15 14:30N 40°39' W 074°09'3 5.4
2017-Dec-15 14:00N 40°39' W 074°05'3 6.0
2017-Dec-15 13:30N 40°39' W 074°01'1 2.2
2017-Dec-15 13:00N 40°40' W 074°00'2 4.1
2017-Dec-15 12:31N 40°39' W 074°02'4 6.9
2017-Dec-15 12:00N 40°39' W 074°07'1 1.5
2017-Dec-15 11:30N 40°39' W 074°06'3 5.8
2017-Dec-15 11:00N 40°40' W 074°03'0 0.6
2017-Dec-15 10:31N 40°41' W 074°03'4 8.6
2017-Dec-15 10:00N 40°39' W 074°08'3 6.0
2017-Dec-15 09:30N 40°38' W 074°12'0 0.1
2017-Dec-15 09:00N 40°38' W 074°12'3 5.6
2017-Dec-15 08:30N 40°39' W 074°08'5 9.2
2017-Dec-15 08:00N 40°41' W 074°03'1 2.2
2017-Dec-15 07:30N 40°40' W 074°03'3 5.7
2017-Dec-15 06:59N 40°39' W 074°07'1 1.9
2017-Dec-15 06:30N 40°39' W 074°06'0 0.7
2017-Dec-15 05:59N 40°39' W 074°07'0 0.3
2017-Dec-15 05:30N 40°39' W 074°07'1 1.2
2017-Dec-15 05:00N 40°39' W 074°06'1 1.7
2017-Dec-15 04:30N 40°39' W 074°05'2 4.4
2017-Dec-15 04:00N 40°41' W 074°03'0 0.0
2017-Dec-15 02:30N 40°41' W 074°03'0 0.0
2017-Dec-15 01:00N 40°41' W 074°03'0 0.3
2017-Dec-15 00:31N 40°41' W 074°03'3 0.5
2017-Dec-14 18:31N 40°42' W 073°59'4 8.6
2017-Dec-14 17:59N 40°46' W 073°57'4 6.4
2017-Dec-14 17:24N 40°48' W 073°52'3 7.4
2017-Dec-14 16:57N 40°48' W 073°47'  
2017-Dec-12 05:27N 40°53' W 073°44'4 8.1
2017-Dec-12 05:00N 40°50' W 073°47'3 6.0
2017-Dec-12 04:30N 40°48' W 073°50'4 7.0
2017-Dec-12 04:00N 40°48' W 073°54'3 5.9
2017-Dec-12 03:30N 40°46' W 073°57'3 5.7
2017-Dec-12 03:00N 40°43' W 073°58'3 5.3
2017-Dec-12 02:30N 40°41' W 074°01'2 3.2
2017-Dec-12 02:00N 40°41' W 074°03'0 0.0
2017-Dec-12 01:30N 40°41' W 074°03'0 0.0
2017-Dec-12 01:00N 40°41' W 074°03'0 0.0
2017-Dec-12 00:30N 40°41' W 074°03'0 0.0
2017-Dec-12 00:00N 40°41' W 074°03'0 0.0
2017-Dec-11 23:30N 40°41' W 074°03'0 0.0
2017-Dec-11 23:00N 40°41' W 074°03'0 0.0
2017-Dec-11 22:30N 40°41' W 074°03'0 0.0
2017-Dec-11 22:00N 40°41' W 074°03'0 0.1
2017-Dec-11 21:30N 40°41' W 074°03'0 0.1
2017-Dec-11 21:00N 40°41' W 074°03'0 0.0
2017-Dec-11 20:31N 40°41' W 074°03'2 4.5
2017-Dec-11 20:00N 40°40' W 074°00'0 0.0
2017-Dec-11 19:30N 40°40' W 074°00'0 0.0
2017-Dec-11 19:00N 40°40' W 074°00'0 0.0
2017-Dec-11 18:30N 40°40' W 074°00'2 4.6
2017-Dec-11 18:00N 40°41' W 074°03'0 0.0
2017-Dec-11 17:30N 40°41' W 074°03'2 4.9
2017-Dec-11 17:00N 40°38' W 074°03'4 7.5
2017-Dec-11 16:30N 40°35' W 074°01'4 7.1
2017-Dec-11 15:59N 40°34' W 073°57'3 5.8
2017-Dec-11 15:28N 40°34' W 073°53'3 6.2
2017-Dec-11 15:00N 40°35' W 073°49'4 0.2
2017-Dec-10 19:36N 40°38' W 073°45'0 2.1
2017-Dec-10 19:30N 40°38' W 073°45'3 3.8
2017-Dec-10 18:43N 40°36' W 073°48'1 5.4
2017-Dec-10 18:29N 40°35' W 073°49'2 3.3
2017-Dec-10 18:00N 40°35' W 073°51'2 3.3
2017-Dec-10 17:25N 40°34' W 073°54'3 5.8
2017-Dec-10 16:58N 40°34' W 073°57'3 5.6
2017-Dec-10 16:30N 40°34' W 074°01'3 5.6
2017-Dec-10 16:00N 40°37' W 074°03'3 5.5
2017-Dec-10 15:31N 40°39' W 074°02'2 3.0
2017-Dec-10 15:00N 40°40' W 074°00'0 0.0
2017-Dec-10 14:31N 40°40' W 074°00'0 0.0
2017-Dec-10 14:01N 40°40' W 074°00'0 0.0
2017-Dec-10 13:30N 40°40' W 074°00'0 0.0
2017-Dec-10 13:00N 40°40' W 074°00'0 0.0
2017-Dec-10 12:30N 40°40' W 074°00'0 0.0
2017-Dec-10 12:00N 40°40' W 074°00'0 0.0
2017-Dec-10 11:30N 40°40' W 074°00'0 0.0
2017-Dec-10 11:00N 40°40' W 074°00'0 0.0
2017-Dec-10 10:30N 40°40' W 074°00'0 0.0
2017-Dec-10 10:01N 40°40' W 074°00'0 0.0
2017-Dec-10 09:30N 40°40' W 074°00'0 0.0
2017-Dec-10 09:00N 40°40' W 074°00'0 0.0
2017-Dec-10 08:30N 40°40' W 074°00'0 0.0
2017-Dec-10 08:00N 40°40' W 074°00'0 0.0
2017-Dec-10 07:30N 40°40' W 074°00'0 0.0
2017-Dec-10 07:01N 40°40' W 074°00'0 0.0
2017-Dec-10 06:30N 40°40' W 074°00'0 0.0
2017-Dec-10 06:00N 40°40' W 074°00'0 0.0
2017-Dec-10 05:30N 40°40' W 074°00'0 0.0
2017-Dec-10 05:00N 40°40' W 074°00'0 0.0
2017-Dec-10 04:31N 40°40' W 074°00'0 0.0
2017-Dec-10 04:00N 40°40' W 074°00'0 0.0
2017-Dec-10 03:30N 40°40' W 074°00'0 0.0
2017-Dec-10 03:01N 40°40' W 074°00'0 0.0
2017-Dec-10 02:31N 40°40' W 074°00'0 0.0
2017-Dec-10 02:01N 40°40' W 074°00'0 0.0
2017-Dec-10 01:30N 40°40' W 074°00'0 0.0
2017-Dec-10 01:00N 40°40' W 074°00'0 0.0
2017-Dec-10 00:30N 40°40' W 074°00'0 0.0
2017-Dec-10 00:00N 40°40' W 074°00'0 0.0
2017-Dec-09 23:30N 40°40' W 074°00'0 0.0
2017-Dec-09 23:00N 40°40' W 074°00'0 0.0
2017-Dec-09 22:30N 40°40' W 074°00'0 0.0
2017-Dec-09 22:00N 40°40' W 074°00'0 0.0
2017-Dec-09 21:30N 40°40' W 074°00'0 0.0
2017-Dec-09 21:00N 40°40' W 074°00'0 0.0
2017-Dec-09 20:30N 40°40' W 074°00'0 0.0
2017-Dec-09 20:00N 40°40' W 074°00'0 0.0
2017-Dec-09 19:30N 40°40' W 074°00'0 0.0
2017-Dec-09 19:00N 40°40' W 074°00'0 0.0
2017-Dec-09 18:30N 40°40' W 074°00'0 0.2
2017-Dec-09 18:00N 40°40' W 074°00'2 3.4
2017-Dec-09 17:31N 40°39' W 074°02'2 4.9
2017-Dec-09 17:00N 40°37' W 074°03'3 5.6
2017-Dec-09 16:30N 40°34' W 074°01'1 1.6
2017-Dec-09 16:00N 40°34' W 073°60'2 4.4
2017-Dec-09 15:30N 40°35' W 074°02'3 5.4
2017-Dec-09 15:00N 40°38' W 074°03'3 5.3
2017-Dec-09 14:31N 40°40' W 074°00'0 0.4
2017-Dec-09 14:00N 40°40' W 074°00'0 0.0
2017-Dec-09 13:31N 40°40' W 074°00'0 0.0
2017-Dec-09 13:00N 40°40' W 074°00'0 0.0
2017-Dec-09 12:30N 40°40' W 074°00'0 0.0
2017-Dec-09 12:00N 40°40' W 074°00'0 0.0
2017-Dec-09 11:30N 40°40' W 074°00'0 0.0
2017-Dec-09 11:00N 40°40' W 074°00'0 0.0
2017-Dec-09 10:30N 40°40' W 074°00'0 0.0
2017-Dec-09 10:00N 40°40' W 074°00'0 0.0
2017-Dec-09 09:31N 40°40' W 074°00'0 0.0
2017-Dec-09 09:00N 40°40' W 074°00'0 0.0
2017-Dec-09 08:30N 40°40' W 074°00'0 0.0
2017-Dec-09 08:00N 40°40' W 074°00'0 0.4
2017-Dec-09 07:31N 40°40' W 074°00'2 3.4
2017-Dec-09 07:00N 40°39' W 074°02'4 7.1
2017-Dec-09 06:30N 40°39' W 074°07'3 6.9
2017-Dec-09 06:00N 40°39' W 074°11'3 6.4
2017-Dec-09 05:30N 40°35' W 074°12'3 4.4
2017-Dec-09 04:54N 40°33' W 074°14'1 0.1
2017-Dec-08 20:41N 40°33' W 074°15'1 6.5
2017-Dec-08 20:30N 40°33' W 074°14'4 7.2
2017-Dec-08 20:00N 40°37' W 074°12'3 6.4
2017-Dec-08 19:30N 40°39' W 074°09'3 6.2
2017-Dec-08 19:00N 40°39' W 074°05'3 6.9
2017-Dec-08 18:30N 40°40' W 074°00'0 0.4
2017-Dec-08 18:01N 40°40' W 074°00'0 0.0
2017-Dec-08 17:31N 40°40' W 074°00'0 0.0
2017-Dec-08 17:01N 40°40' W 074°00'0 0.0
2017-Dec-08 16:30N 40°40' W 074°00'0 0.1
2017-Dec-08 16:00N 40°40' W 073°60'0 0.0
2017-Dec-08 15:30N 40°40' W 074°00'0 0.0
2017-Dec-08 15:01N 40°40' W 074°00'1 1.3
2017-Dec-08 14:30N 40°40' W 074°01'3 6.4
2017-Dec-08 14:01N 40°39' W 074°05'4 7.6
2017-Dec-08 13:30N 40°39' W 074°10'4 6.9
2017-Dec-08 12:58N 40°35' W 074°12'3 7.5
2017-Dec-08 12:30N 40°33' W 074°15'0 0.3
2017-Dec-08 11:54N 40°33' W 074°15'0 0.3
2017-Dec-08 11:25N 40°33' W 074°15'3 7.2
2017-Dec-08 11:00N 40°35' W 074°12'4 8.4
2017-Dec-08 10:30N 40°39' W 074°10'4 8.6
2017-Dec-08 10:00N 40°39' W 074°05'2 4.4
2017-Dec-08 09:30N 40°41' W 074°03'0 0.0
2017-Dec-08 09:00N 40°41' W 074°03'0 0.0
2017-Dec-08 08:30N 40°41' W 074°03'0 0.0
2017-Dec-08 08:00N 40°41' W 074°03'0 0.0
2017-Dec-08 07:30N 40°41' W 074°03'0 0.1
2017-Dec-08 07:00N 40°41' W 074°03'0 0.0
2017-Dec-08 06:30N 40°41' W 074°03'0 0.1
2017-Dec-08 06:00N 40°41' W 074°03'0 0.0
2017-Dec-08 05:31N 40°41' W 074°03'0 0.0
2017-Dec-08 05:01N 40°41' W 074°03'0 0.0
2017-Dec-08 04:30N 40°41' W 074°03'0 0.0
2017-Dec-08 04:00N 40°41' W 074°03'0 0.0
2017-Dec-08 03:30N 40°41' W 074°03'0 0.0
2017-Dec-08 03:00N 40°41' W 074°03'0 0.0
2017-Dec-08 02:30N 40°41' W 074°03'0 0.0
2017-Dec-08 02:00N 40°41' W 074°03'0 0.1
2017-Dec-08 01:30N 40°41' W 074°03'0 0.2
2017-Dec-08 01:00N 40°41' W 074°03'2 4.6
2017-Dec-08 00:31N 40°40' W 074°00'0 0.0
2017-Dec-08 00:01N 40°40' W 074°00'3 6.9
2017-Dec-07 23:30N 40°39' W 074°04'2 3.1
2017-Dec-07 23:00N 40°39' W 074°07'2 4.6
2017-Dec-07 22:31N 40°39' W 074°04'2 3.7
2017-Dec-07 22:00N 40°41' W 074°03'1 1.8
2017-Dec-07 21:30N 40°40' W 074°03'1 2.1
2017-Dec-07 21:00N 40°39' W 074°04'2 4.3
2017-Dec-07 20:30N 40°41' W 074°02'2 4.0
2017-Dec-07 20:00N 40°40' W 074°00'0 0.0
2017-Dec-07 19:30N 40°40' W 074°00'0 0.0
2017-Dec-07 19:00N 40°40' W 074°00'0 0.0
2017-Dec-07 18:30N 40°40' W 074°00'0 0.0
2017-Dec-07 18:01N 40°40' W 074°00'0 0.0
2017-Dec-07 17:30N 40°40' W 074°00'0 0.0
2017-Dec-07 17:00N 40°40' W 074°00'0 0.0
2017-Dec-07 16:31N 40°40' W 074°00'0 0.0
2017-Dec-07 16:01N 40°40' W 074°00'0 0.1
2017-Dec-07 15:30N 40°40' W 074°00'0 0.1
2017-Dec-07 15:00N 40°40' W 074°00'1 2.5
2017-Dec-07 14:31N 40°41' W 074°01'3 5.5
2017-Dec-07 14:01N 40°42' W 073°59'0 0.4
2017-Dec-07 13:30N 40°42' W 073°58'0 0.1
2017-Dec-07 13:01N 40°42' W 073°58'0 0.0
2017-Dec-07 12:30N 40°42' W 073°58'3 5.8
2017-Dec-07 12:00N 40°40' W 074°01'1 1.9
2017-Dec-07 11:31N 40°40' W 074°00'0 0.0
2017-Dec-07 11:00N 40°40' W 074°00'0 0.0
2017-Dec-07 10:30N 40°40' W 074°00'0 0.0
2017-Dec-07 10:00N 40°40' W 074°00'0 0.0
2017-Dec-07 09:30N 40°40' W 074°00'0 0.0
2017-Dec-07 09:00N 40°40' W 074°00'0 0.0
2017-Dec-07 08:30N 40°40' W 074°00'0 0.0
2017-Dec-07 08:01N 40°40' W 074°00'0 0.0
2017-Dec-07 07:30N 40°40' W 074°00'0 0.0
2017-Dec-07 07:01N 40°40' W 074°00'0 0.0
2017-Dec-07 06:30N 40°40' W 074°00'0 0.0
2017-Dec-07 06:00N 40°40' W 074°00'0 0.0
2017-Dec-07 05:30N 40°40' W 074°00'0 0.0
2017-Dec-07 05:00N 40°40' W 074°00'0 0.0
2017-Dec-07 04:31N 40°40' W 074°00'2 4.5
2017-Dec-07 04:00N 40°41' W 074°03'0 0.0
2017-Dec-07 03:30N 40°41' W 074°03'0 0.0
2017-Dec-07 03:01N 40°41' W 074°03'0 0.0
2017-Dec-07 02:30N 40°41' W 074°03'0 0.0
2017-Dec-07 02:00N 40°41' W 074°03'0 0.0
2017-Dec-07 01:31N 40°41' W 074°03'0 0.1
2017-Dec-07 01:00N 40°41' W 074°03'0 0.1
2017-Dec-07 00:30N 40°41' W 074°03'0 0.0
2017-Dec-07 00:00N 40°41' W 074°03'0 0.0
2017-Dec-06 23:30N 40°41' W 074°03'0 0.1
2017-Dec-06 23:00N 40°41' W 074°03'0 0.0
2017-Dec-06 22:30N 40°41' W 074°03'0 0.0
2017-Dec-06 22:00N 40°41' W 074°03'0 0.0
2017-Dec-06 21:31N 40°41' W 074°03'0 0.1
2017-Dec-06 21:00N 40°41' W 074°03'  
Track history (hours):
 
Tides and Currents Weather Stations Pressure Air Temp Water Temp Dewpoint Dewpoint Depression Visibility Wind Speed Wind Dir Waves Ship Positions

HMS Liberty

Owner: Harley Marine Services, Inc., Seattle, WA. More information available from US FCC via Universal Licensing System and Coast Guard Vessel Documentation Center.

Last reported at 2017-Dec-16 06:01 UTC. Time now 2017-Dec-16 09:14 UTC.
Position N 40°32' W 074°15'.

Length 26 m.

Type: Towing. MMSI: 367100050.

Date/timePositionNaut miles runAvg speedWind from/ knotsBaromVisibWave heightAir tempDewpointWater temp
2017-Dec-16 06:01N 40°32' W 074°15'1 2.7
2017-Dec-16 05:35N 40°33' W 074°15'0 2.8
2017-Dec-16 05:28N 40°33' W 074°14'1 2.6
2017-Dec-16 05:00N 40°34' W 074°13'2 3.2
2017-Dec-16 04:30N 40°36' W 074°12'3 5.2
2017-Dec-16 04:00N 40°38' W 074°12'3 5.6
2017-Dec-16 03:30N 40°39' W 074°08'2 4.8
2017-Dec-16 03:00N 40°39' W 074°05'3 5.6
2017-Dec-16 02:30N 40°39' W 074°02'1 2.4
2017-Dec-16 02:00N 40°40' W 074°00'1 2.3
2017-Dec-16 01:30N 40°40' W 074°02'3 5.6
2017-Dec-16 01:01N 40°39' W 074°05'2 3.0
2017-Dec-16 00:30N 40°39' W 074°07'0 0.0
2017-Dec-16 00:00N 40°39' W 074°07'0 0.1
2017-Dec-15 23:30N 40°39' W 074°07'0 0.4
2017-Dec-15 22:59N 40°39' W 074°07'2 4.8
2017-Dec-15 22:30N 40°39' W 074°04'3 5.9
2017-Dec-15 22:00N 40°40' W 074°00'0 0.1
2017-Dec-15 21:30N 40°40' W 074°00'0 0.0
2017-Dec-15 21:00N 40°40' W 074°00'0 0.0
2017-Dec-15 20:30N 40°40' W 074°00'0 0.0
2017-Dec-15 20:00N 40°40' W 074°00'0 0.0
2017-Dec-15 19:30N 40°40' W 074°00'0 0.0
2017-Dec-15 19:00N 40°40' W 074°00'0 0.0
2017-Dec-15 18:30N 40°40' W 074°00'0 0.0
2017-Dec-15 18:00N 40°40' W 074°00'0 0.0
2017-Dec-15 17:30N 40°40' W 074°00'0 0.0
2017-Dec-15 17:00N 40°40' W 074°00'3 5.3
2017-Dec-15 16:30N 40°39' W 074°03'4 8.6
2017-Dec-15 16:01N 40°39' W 074°09'1 2.0
2017-Dec-15 15:30N 40°40' W 074°09'0 0.0
2017-Dec-15 14:59N 40°40' W 074°09'1 2.2
2017-Dec-15 14:30N 40°39' W 074°09'3 5.4
2017-Dec-15 14:00N 40°39' W 074°05'3 6.0
2017-Dec-15 13:30N 40°39' W 074°01'1 2.2
2017-Dec-15 13:00N 40°40' W 074°00'2 4.1
2017-Dec-15 12:31N 40°39' W 074°02'4 6.9
2017-Dec-15 12:00N 40°39' W 074°07'1 1.5
2017-Dec-15 11:30N 40°39' W 074°06'3 5.8
2017-Dec-15 11:00N 40°40' W 074°03'0 0.6
2017-Dec-15 10:31N 40°41' W 074°03'4 8.6
2017-Dec-15 10:00N 40°39' W 074°08'3 6.0
2017-Dec-15 09:30N 40°38' W 074°12'0 0.1
2017-Dec-15 09:00N 40°38' W 074°12'3 5.6
2017-Dec-15 08:30N 40°39' W 074°08'5 9.2
2017-Dec-15 08:00N 40°41' W 074°03'1 2.2
2017-Dec-15 07:30N 40°40' W 074°03'3 5.7
2017-Dec-15 06:59N 40°39' W 074°07'1 1.9
2017-Dec-15 06:30N 40°39' W 074°06'0 0.7
2017-Dec-15 05:59N 40°39' W 074°07'0 0.3
2017-Dec-15 05:30N 40°39' W 074°07'1 1.2
2017-Dec-15 05:00N 40°39' W 074°06'1 1.7
2017-Dec-15 04:30N 40°39' W 074°05'2 4.4
2017-Dec-15 04:00N 40°41' W 074°03'0 0.0
2017-Dec-15 02:30N 40°41' W 074°03'0 0.0
2017-Dec-15 01:00N 40°41' W 074°03'0 0.3
2017-Dec-15 00:31N 40°41' W 074°03'3 0.5
2017-Dec-14 18:31N 40°42' W 073°59'4 8.6
2017-Dec-14 17:59N 40°46' W 073°57'4 6.4
2017-Dec-14 17:24N 40°48' W 073°52'3 7.4
2017-Dec-14 16:57N 40°48' W 073°47'  
2017-Dec-12 05:27N 40°53' W 073°44'4 8.1
2017-Dec-12 05:00N 40°50' W 073°47'3 6.0
2017-Dec-12 04:30N 40°48' W 073°50'4 7.0
2017-Dec-12 04:00N 40°48' W 073°54'3 5.9
2017-Dec-12 03:30N 40°46' W 073°57'3 5.7
2017-Dec-12 03:00N 40°43' W 073°58'3 5.3
2017-Dec-12 02:30N 40°41' W 074°01'2 3.2
2017-Dec-12 02:00N 40°41' W 074°03'0 0.0
2017-Dec-12 01:30N 40°41' W 074°03'0 0.0
2017-Dec-12 01:00N 40°41' W 074°03'0 0.0
2017-Dec-12 00:30N 40°41' W 074°03'0 0.0
2017-Dec-12 00:00N 40°41' W 074°03'0 0.0
2017-Dec-11 23:30N 40°41' W 074°03'0 0.0
2017-Dec-11 23:00N 40°41' W 074°03'0 0.0
2017-Dec-11 22:30N 40°41' W 074°03'0 0.0
2017-Dec-11 22:00N 40°41' W 074°03'0 0.1
2017-Dec-11 21:30N 40°41' W 074°03'0 0.1
2017-Dec-11 21:00N 40°41' W 074°03'0 0.0
2017-Dec-11 20:31N 40°41' W 074°03'2 4.5
2017-Dec-11 20:00N 40°40' W 074°00'0 0.0
2017-Dec-11 19:30N 40°40' W 074°00'0 0.0
2017-Dec-11 19:00N 40°40' W 074°00'0 0.0
2017-Dec-11 18:30N 40°40' W 074°00'2 4.6
2017-Dec-11 18:00N 40°41' W 074°03'0 0.0
2017-Dec-11 17:30N 40°41' W 074°03'2 4.9
2017-Dec-11 17:00N 40°38' W 074°03'4 7.5
2017-Dec-11 16:30N 40°35' W 074°01'4 7.1
2017-Dec-11 15:59N 40°34' W 073°57'3 5.8
2017-Dec-11 15:28N 40°34' W 073°53'3 6.2
2017-Dec-11 15:00N 40°35' W 073°49'4 0.2
2017-Dec-10 19:36N 40°38' W 073°45'0 2.1
2017-Dec-10 19:30N 40°38' W 073°45'3 3.8
2017-Dec-10 18:43N 40°36' W 073°48'1 5.4
2017-Dec-10 18:29N 40°35' W 073°49'2 3.3
2017-Dec-10 18:00N 40°35' W 073°51'2 3.3
2017-Dec-10 17:25N 40°34' W 073°54'3 5.8
2017-Dec-10 16:58N 40°34' W 073°57'3 5.6
2017-Dec-10 16:30N 40°34' W 074°01'3 5.6
2017-Dec-10 16:00N 40°37' W 074°03'3 5.5
2017-Dec-10 15:31N 40°39' W 074°02'2 3.0
2017-Dec-10 15:00N 40°40' W 074°00'0 0.0
2017-Dec-10 14:31N 40°40' W 074°00'0 0.0
2017-Dec-10 14:01N 40°40' W 074°00'0 0.0
2017-Dec-10 13:30N 40°40' W 074°00'0 0.0
2017-Dec-10 13:00N 40°40' W 074°00'0 0.0
2017-Dec-10 12:30N 40°40' W 074°00'0 0.0
2017-Dec-10 12:00N 40°40' W 074°00'0 0.0
2017-Dec-10 11:30N 40°40' W 074°00'0 0.0
2017-Dec-10 11:00N 40°40' W 074°00'0 0.0
2017-Dec-10 10:30N 40°40' W 074°00'0 0.0
2017-Dec-10 10:01N 40°40' W 074°00'0 0.0
2017-Dec-10 09:30N 40°40' W 074°00'0 0.0
2017-Dec-10 09:00N 40°40' W 074°00'0 0.0
2017-Dec-10 08:30N 40°40' W 074°00'0 0.0
2017-Dec-10 08:00N 40°40' W 074°00'0 0.0
2017-Dec-10 07:30N 40°40' W 074°00'0 0.0
2017-Dec-10 07:01N 40°40' W 074°00'0 0.0
2017-Dec-10 06:30N 40°40' W 074°00'0 0.0
2017-Dec-10 06:00N 40°40' W 074°00'0 0.0
2017-Dec-10 05:30N 40°40' W 074°00'0 0.0
2017-Dec-10 05:00N 40°40' W 074°00'0 0.0
2017-Dec-10 04:31N 40°40' W 074°00'0 0.0
2017-Dec-10 04:00N 40°40' W 074°00'0 0.0
2017-Dec-10 03:30N 40°40' W 074°00'0 0.0
2017-Dec-10 03:01N 40°40' W 074°00'0 0.0
2017-Dec-10 02:31N 40°40' W 074°00'0 0.0
2017-Dec-10 02:01N 40°40' W 074°00'0 0.0
2017-Dec-10 01:30N 40°40' W 074°00'0 0.0
2017-Dec-10 01:00N 40°40' W 074°00'0 0.0
2017-Dec-10 00:30N 40°40' W 074°00'0 0.0
2017-Dec-10 00:00N 40°40' W 074°00'0 0.0
2017-Dec-09 23:30N 40°40' W 074°00'0 0.0
2017-Dec-09 23:00N 40°40' W 074°00'0 0.0
2017-Dec-09 22:30N 40°40' W 074°00'0 0.0
2017-Dec-09 22:00N 40°40' W 074°00'0 0.0
2017-Dec-09 21:30N 40°40' W 074°00'0 0.0
2017-Dec-09 21:00N 40°40' W 074°00'0 0.0
2017-Dec-09 20:30N 40°40' W 074°00'0 0.0
2017-Dec-09 20:00N 40°40' W 074°00'0 0.0
2017-Dec-09 19:30N 40°40' W 074°00'0 0.0
2017-Dec-09 19:00N 40°40' W 074°00'0 0.0
2017-Dec-09 18:30N 40°40' W 074°00'0 0.2
2017-Dec-09 18:00N 40°40' W 074°00'2 3.4
2017-Dec-09 17:31N 40°39' W 074°02'2 4.9
2017-Dec-09 17:00N 40°37' W 074°03'3 5.6
2017-Dec-09 16:30N 40°34' W 074°01'1 1.6
2017-Dec-09 16:00N 40°34' W 073°60'2 4.4
2017-Dec-09 15:30N 40°35' W 074°02'3 5.4
2017-Dec-09 15:00N 40°38' W 074°03'3 5.3
2017-Dec-09 14:31N 40°40' W 074°00'0 0.4
2017-Dec-09 14:00N 40°40' W 074°00'0 0.0
2017-Dec-09 13:31N 40°40' W 074°00'0 0.0
2017-Dec-09 13:00N 40°40' W 074°00'0 0.0
2017-Dec-09 12:30N 40°40' W 074°00'0 0.0
2017-Dec-09 12:00N 40°40' W 074°00'0 0.0
2017-Dec-09 11:30N 40°40' W 074°00'0 0.0
2017-Dec-09 11:00N 40°40' W 074°00'0 0.0
2017-Dec-09 10:30N 40°40' W 074°00'0 0.0
2017-Dec-09 10:00N 40°40' W 074°00'0 0.0
2017-Dec-09 09:31N 40°40' W 074°00'0 0.0
2017-Dec-09 09:00N 40°40' W 074°00'0 0.0
2017-Dec-09 08:30N 40°40' W 074°00'0 0.0
2017-Dec-09 08:00N 40°40' W 074°00'0 0.4
2017-Dec-09 07:31N 40°40' W 074°00'2 3.4
2017-Dec-09 07:00N 40°39' W 074°02'4 7.1
2017-Dec-09 06:30N 40°39' W 074°07'3 6.9
2017-Dec-09 06:00N 40°39' W 074°11'3 6.4
2017-Dec-09 05:30N 40°35' W 074°12'3 4.4
2017-Dec-09 04:54N 40°33' W 074°14'1 0.1
2017-Dec-08 20:41N 40°33' W 074°15'1 6.5
2017-Dec-08 20:30N 40°33' W 074°14'4 7.2
2017-Dec-08 20:00N 40°37' W 074°12'3 6.4
2017-Dec-08 19:30N 40°39' W 074°09'3 6.2
2017-Dec-08 19:00N 40°39' W 074°05'3 6.9
2017-Dec-08 18:30N 40°40' W 074°00'0 0.4
2017-Dec-08 18:01N 40°40' W 074°00'0 0.0
2017-Dec-08 17:31N 40°40' W 074°00'0 0.0
2017-Dec-08 17:01N 40°40' W 074°00'0 0.0
2017-Dec-08 16:30N 40°40' W 074°00'0 0.1
2017-Dec-08 16:00N 40°40' W 073°60'0 0.0
2017-Dec-08 15:30N 40°40' W 074°00'0 0.0
2017-Dec-08 15:01N 40°40' W 074°00'1 1.3
2017-Dec-08 14:30N 40°40' W 074°01'3 6.4
2017-Dec-08 14:01N 40°39' W 074°05'4 7.6
2017-Dec-08 13:30N 40°39' W 074°10'4 6.9
2017-Dec-08 12:58N 40°35' W 074°12'3 7.5
2017-Dec-08 12:30N 40°33' W 074°15'0 0.3
2017-Dec-08 11:54N 40°33' W 074°15'0 0.3
2017-Dec-08 11:25N 40°33' W 074°15'3 7.2
2017-Dec-08 11:00N 40°35' W 074°12'4 8.4
2017-Dec-08 10:30N 40°39' W 074°10'4 8.6
2017-Dec-08 10:00N 40°39' W 074°05'2 4.4
2017-Dec-08 09:30N 40°41' W 074°03'0 0.0
2017-Dec-08 09:00N 40°41' W 074°03'0 0.0
2017-Dec-08 08:30N 40°41' W 074°03'0 0.0
2017-Dec-08 08:00N 40°41' W 074°03'0 0.0
2017-Dec-08 07:30N 40°41' W 074°03'0 0.1
2017-Dec-08 07:00N 40°41' W 074°03'0 0.0
2017-Dec-08 06:30N 40°41' W 074°03'0 0.1
2017-Dec-08 06:00N 40°41' W 074°03'0 0.0
2017-Dec-08 05:31N 40°41' W 074°03'0 0.0
2017-Dec-08 05:01N 40°41' W 074°03'0 0.0
2017-Dec-08 04:30N 40°41' W 074°03'0 0.0
2017-Dec-08 04:00N 40°41' W 074°03'0 0.0
2017-Dec-08 03:30N 40°41' W 074°03'0 0.0
2017-Dec-08 03:00N 40°41' W 074°03'0 0.0
2017-Dec-08 02:30N 40°41' W 074°03'0 0.0
2017-Dec-08 02:00N 40°41' W 074°03'0 0.1
2017-Dec-08 01:30N 40°41' W 074°03'0 0.2
2017-Dec-08 01:00N 40°41' W 074°03'2 4.6
2017-Dec-08 00:31N 40°40' W 074°00'0 0.0
2017-Dec-08 00:01N 40°40' W 074°00'3 6.9
2017-Dec-07 23:30N 40°39' W 074°04'2 3.1
2017-Dec-07 23:00N 40°39' W 074°07'2 4.6
2017-Dec-07 22:31N 40°39' W 074°04'2 3.7
2017-Dec-07 22:00N 40°41' W 074°03'1 1.8
2017-Dec-07 21:30N 40°40' W 074°03'1 2.1
2017-Dec-07 21:00N 40°39' W 074°04'2 4.3
2017-Dec-07 20:30N 40°41' W 074°02'2 4.0
2017-Dec-07 20:00N 40°40' W 074°00'0 0.0
2017-Dec-07 19:30N 40°40' W 074°00'0 0.0
2017-Dec-07 19:00N 40°40' W 074°00'0 0.0
2017-Dec-07 18:30N 40°40' W 074°00'0 0.0
2017-Dec-07 18:01N 40°40' W 074°00'0 0.0
2017-Dec-07 17:30N 40°40' W 074°00'0 0.0
2017-Dec-07 17:00N 40°40' W 074°00'0 0.0
2017-Dec-07 16:31N 40°40' W 074°00'0 0.0
2017-Dec-07 16:01N 40°40' W 074°00'0 0.1
2017-Dec-07 15:30N 40°40' W 074°00'0 0.1
2017-Dec-07 15:00N 40°40' W 074°00'1 2.5
2017-Dec-07 14:31N 40°41' W 074°01'3 5.5
2017-Dec-07 14:01N 40°42' W 073°59'0 0.4
2017-Dec-07 13:30N 40°42' W 073°58'0 0.1
2017-Dec-07 13:01N 40°42' W 073°58'0 0.0
2017-Dec-07 12:30N 40°42' W 073°58'3 5.8
2017-Dec-07 12:00N 40°40' W 074°01'1 1.9
2017-Dec-07 11:31N 40°40' W 074°00'0 0.0
2017-Dec-07 11:00N 40°40' W 074°00'0 0.0
2017-Dec-07 10:30N 40°40' W 074°00'0 0.0
2017-Dec-07 10:00N 40°40' W 074°00'0 0.0
2017-Dec-07 09:30N 40°40' W 074°00'0 0.0
2017-Dec-07 09:00N 40°40' W 074°00'0 0.0
2017-Dec-07 08:30N 40°40' W 074°00'0 0.0
2017-Dec-07 08:01N 40°40' W 074°00'0 0.0
2017-Dec-07 07:30N 40°40' W 074°00'0 0.0
2017-Dec-07 07:01N 40°40' W 074°00'0 0.0
2017-Dec-07 06:30N 40°40' W 074°00'0 0.0
2017-Dec-07 06:00N 40°40' W 074°00'0 0.0
2017-Dec-07 05:30N 40°40' W 074°00'0 0.0
2017-Dec-07 05:00N 40°40' W 074°00'0 0.0
2017-Dec-07 04:31N 40°40' W 074°00'2 4.5
2017-Dec-07 04:00N 40°41' W 074°03'0 0.0
2017-Dec-07 03:30N 40°41' W 074°03'0 0.0
2017-Dec-07 03:01N 40°41' W 074°03'0 0.0
2017-Dec-07 02:30N 40°41' W 074°03'0 0.0
2017-Dec-07 02:00N 40°41' W 074°03'0 0.0
2017-Dec-07 01:31N 40°41' W 074°03'0 0.1
2017-Dec-07 01:00N 40°41' W 074°03'0 0.1
2017-Dec-07 00:30N 40°41' W 074°03'0 0.0
2017-Dec-07 00:00N 40°41' W 074°03'0 0.0
2017-Dec-06 23:30N 40°41' W 074°03'0 0.1
2017-Dec-06 23:00N 40°41' W 074°03'0 0.0
2017-Dec-06 22:30N 40°41' W 074°03'0 0.0
2017-Dec-06 22:00N 40°41' W 074°03'0 0.0
2017-Dec-06 21:31N 40°41' W 074°03'0 0.1
2017-Dec-06 21:00N 40°41' W 074°03'  

Dump ship's entire track history